createdAt,value
2018-08-23T00:00:48.130Z,1009.89
2018-08-23T00:01:48.125Z,1009.87
2018-08-23T00:02:48.107Z,1009.86
2018-08-23T00:03:48.089Z,1009.87
2018-08-23T00:04:48.081Z,1009.85
2018-08-23T00:05:48.068Z,1009.86
2018-08-23T00:06:48.052Z,1009.81
2018-08-23T00:07:48.062Z,1009.82
2018-08-23T00:08:48.018Z,1009.78
2018-08-23T00:09:48.017Z,1009.81
2018-08-23T00:10:48.002Z,1009.83
2018-08-23T00:11:47.977Z,1009.80
2018-08-23T00:12:47.961Z,1009.82
2018-08-23T00:13:48.098Z,1009.81
2018-08-23T00:14:47.934Z,1009.81
2018-08-23T00:15:47.918Z,1009.82
2018-08-23T00:16:48.008Z,1009.84
2018-08-23T00:17:47.894Z,1009.79
2018-08-23T00:18:47.884Z,1009.78
2018-08-23T00:19:47.868Z,1009.77
2018-08-23T00:20:47.847Z,1009.77
2018-08-23T00:21:47.836Z,1009.76
2018-08-23T00:22:47.828Z,1009.77
2018-08-23T00:23:47.808Z,1009.76
2018-08-23T00:24:47.799Z,1009.71
2018-08-23T00:25:47.777Z,1009.74
2018-08-23T00:26:47.765Z,1009.72
2018-08-23T00:27:47.748Z,1009.68
2018-08-23T00:28:47.734Z,1009.69
2018-08-23T00:29:47.721Z,1009.68
2018-08-23T00:30:47.706Z,1009.67
2018-08-23T00:31:47.692Z,1009.66
2018-08-23T00:32:47.682Z,1009.65
2018-08-23T00:33:47.665Z,1009.66
2018-08-23T00:34:47.651Z,1009.62
2018-08-23T00:35:47.644Z,1009.63
2018-08-23T00:36:47.621Z,1009.63
2018-08-23T00:37:47.607Z,1009.58
2018-08-23T00:38:47.594Z,1009.60
2018-08-23T00:39:47.578Z,1009.57
2018-08-23T00:40:47.564Z,1009.58
2018-08-23T00:41:47.549Z,1009.57
2018-08-23T00:42:47.747Z,1009.59
2018-08-23T00:43:47.535Z,1009.56
2018-08-23T00:44:47.507Z,1009.53
2018-08-23T00:45:47.493Z,1009.55
2018-08-23T00:46:47.483Z,1009.52
2018-08-23T00:47:47.465Z,1009.50
2018-08-23T00:48:47.452Z,1009.48
2018-08-23T00:49:47.436Z,1009.48
2018-08-23T00:50:47.423Z,1009.49
2018-08-23T00:51:47.408Z,1009.48
2018-08-23T00:52:47.395Z,1009.46
2018-08-23T00:53:47.378Z,1009.46
2018-08-23T00:54:47.374Z,1009.48
2018-08-23T00:55:47.353Z,1009.45
2018-08-23T00:56:47.343Z,1009.50
2018-08-23T00:57:47.326Z,1009.53
2018-08-23T00:58:47.314Z,1009.52
2018-08-23T00:59:47.301Z,1009.50
2018-08-23T01:00:47.279Z,1009.47
2018-08-23T01:01:47.269Z,1009.47
2018-08-23T01:02:47.251Z,1009.41
2018-08-23T01:03:47.240Z,1009.43
2018-08-23T01:04:47.221Z,1009.40
2018-08-23T01:05:47.208Z,1009.40
2018-08-23T01:06:47.194Z,1009.36
2018-08-23T01:07:47.178Z,1009.34
2018-08-23T01:08:47.164Z,1009.36
2018-08-23T01:09:47.150Z,1009.35
2018-08-23T01:10:47.139Z,1009.36
2018-08-23T01:11:47.124Z,1009.37
2018-08-23T01:12:47.106Z,1009.41
2018-08-23T01:13:47.092Z,1009.36
2018-08-23T01:14:47.079Z,1009.43
2018-08-23T01:15:47.072Z,1009.42
2018-08-23T01:16:47.049Z,1009.41
2018-08-23T01:17:47.034Z,1009.40
2018-08-23T01:18:47.022Z,1009.37
2018-08-23T01:19:47.004Z,1009.37
2018-08-23T01:20:46.992Z,1009.38
2018-08-23T01:21:46.976Z,1009.37
2018-08-23T01:22:46.963Z,1009.35
2018-08-23T01:23:46.949Z,1009.33
2018-08-23T01:24:46.934Z,1009.33
2018-08-23T01:25:46.919Z,1009.37
2018-08-23T01:26:46.904Z,1009.37
2018-08-23T01:27:46.895Z,1009.37
2018-08-23T01:28:46.875Z,1009.36
2018-08-23T01:29:46.864Z,1009.35
2018-08-23T01:30:46.849Z,1009.37
2018-08-23T01:31:46.831Z,1009.36
2018-08-23T01:32:46.817Z,1009.34
2018-08-23T01:33:46.802Z,1009.37
2018-08-23T01:34:46.788Z,1009.35
2018-08-23T01:35:46.775Z,1009.34
2018-08-23T01:36:46.760Z,1009.34
2018-08-23T01:37:46.751Z,1009.29
2018-08-23T01:38:46.728Z,1009.29
2018-08-23T01:39:46.714Z,1009.34
2018-08-23T01:40:46.698Z,1009.28
2018-08-23T01:41:46.685Z,1009.30
2018-08-23T01:42:46.672Z,1009.28
2018-08-23T01:43:46.655Z,1009.25
2018-08-23T01:44:46.641Z,1009.24
2018-08-23T01:45:46.629Z,1009.19
2018-08-23T01:46:46.614Z,1009.18
2018-08-23T01:47:46.604Z,1009.15
2018-08-23T01:48:46.586Z,1009.17
2018-08-23T01:49:46.569Z,1009.17
2018-08-23T01:50:46.556Z,1009.16
2018-08-23T01:51:46.540Z,1009.17
2018-08-23T01:52:46.529Z,1009.17
2018-08-23T01:53:46.511Z,1009.16
2018-08-23T01:54:46.505Z,1009.16
2018-08-23T01:55:46.484Z,1009.16
2018-08-23T01:56:46.468Z,1009.14
2018-08-23T01:57:46.453Z,1009.18
2018-08-23T01:58:46.441Z,1009.19
2018-08-23T01:59:46.425Z,1009.14
2018-08-23T02:00:46.411Z,1009.14
2018-08-23T02:01:46.396Z,1009.11
2018-08-23T02:02:46.380Z,1009.13
2018-08-23T02:03:46.367Z,1009.11
2018-08-23T02:04:46.352Z,1009.10
2018-08-23T02:05:46.337Z,1009.09
2018-08-23T02:06:46.333Z,1009.11
2018-08-23T02:07:46.308Z,1009.08
2018-08-23T02:08:46.294Z,1009.08
2018-08-23T02:09:46.279Z,1009.03
2018-08-23T02:10:46.265Z,1009.03
2018-08-23T02:11:46.248Z,1009.02
2018-08-23T02:12:46.244Z,1009.04
2018-08-23T02:13:46.221Z,1009.00
2018-08-23T02:14:46.206Z,1009.04
2018-08-23T02:15:46.200Z,1009.04
2018-08-23T02:16:46.176Z,1009.03
2018-08-23T02:17:46.166Z,1009.03
2018-08-23T02:18:46.166Z,1009.02
2018-08-23T02:19:46.134Z,1009.02
2018-08-23T02:20:46.118Z,1009.02
2018-08-23T02:21:46.106Z,1009.02
2018-08-23T02:22:46.088Z,1008.96
2018-08-23T02:23:46.073Z,1008.97
2018-08-23T02:24:46.064Z,1008.97
2018-08-23T02:25:46.047Z,1008.96
2018-08-23T02:26:46.030Z,1009.00
2018-08-23T02:27:46.014Z,1008.94
2018-08-23T02:28:45.999Z,1008.98
2018-08-23T02:29:45.985Z,1008.96
2018-08-23T02:30:45.983Z,1008.96
2018-08-23T02:31:45.959Z,1008.92
2018-08-23T02:32:45.945Z,1008.95
2018-08-23T02:33:45.928Z,1008.92
2018-08-23T02:34:45.914Z,1008.91
2018-08-23T02:35:45.899Z,1008.92
2018-08-23T02:36:45.885Z,1008.92
2018-08-23T02:37:45.869Z,1008.91
2018-08-23T02:38:45.856Z,1008.87
2018-08-23T02:39:45.841Z,1008.88
2018-08-23T02:40:45.826Z,1008.86
2018-08-23T02:41:45.821Z,1008.86
2018-08-23T02:42:45.804Z,1008.85
2018-08-23T02:43:45.782Z,1008.84
2018-08-23T02:44:45.835Z,1008.84
2018-08-23T02:45:45.754Z,1008.84
2018-08-23T02:46:45.738Z,1008.79
2018-08-23T02:47:45.723Z,1008.80
2018-08-23T02:48:45.706Z,1008.78
2018-08-23T02:49:45.696Z,1008.77
2018-08-23T02:50:45.677Z,1008.79
2018-08-23T02:51:45.674Z,1008.78
2018-08-23T02:52:45.648Z,1008.78
2018-08-23T02:53:45.636Z,1008.78
2018-08-23T02:54:45.622Z,1008.78
2018-08-23T02:55:45.603Z,1008.74
2018-08-23T02:56:45.590Z,1008.74
2018-08-23T02:57:45.579Z,1008.74
2018-08-23T02:58:45.560Z,1008.74
2018-08-23T02:59:45.553Z,1008.72
2018-08-23T03:00:45.530Z,1008.70
2018-08-23T03:01:45.514Z,1008.71
2018-08-23T03:02:45.501Z,1008.71
2018-08-23T03:03:45.486Z,1008.68
2018-08-23T03:04:45.475Z,1008.69
2018-08-23T03:05:45.456Z,1008.68
2018-08-23T03:06:45.441Z,1008.68
2018-08-23T03:07:45.431Z,1008.71
2018-08-23T03:08:45.416Z,1008.72
2018-08-23T03:09:45.400Z,1008.68
2018-08-23T03:10:45.381Z,1008.65
2018-08-23T03:11:45.367Z,1008.64
2018-08-23T03:12:45.353Z,1008.65
2018-08-23T03:13:45.338Z,1008.58
2018-08-23T03:14:45.322Z,1008.59
2018-08-23T03:15:45.307Z,1008.60
2018-08-23T03:16:45.292Z,1008.54
2018-08-23T03:17:45.278Z,1008.56
2018-08-23T03:18:45.265Z,1008.54
2018-08-23T03:19:45.247Z,1008.55
2018-08-23T03:20:45.233Z,1008.50
2018-08-23T03:21:45.216Z,1008.49
2018-08-23T03:22:45.204Z,1008.50
2018-08-23T03:23:45.192Z,1008.50
2018-08-23T03:24:45.172Z,1008.50
2018-08-23T03:25:45.161Z,1008.50
2018-08-23T03:26:45.150Z,1008.50
2018-08-23T03:27:45.126Z,1008.54
2018-08-23T03:28:45.118Z,1008.53
2018-08-23T03:29:45.101Z,1008.48
2018-08-23T03:30:45.088Z,1008.48
2018-08-23T03:31:45.068Z,1008.47
2018-08-23T03:32:45.053Z,1008.47
2018-08-23T03:33:45.040Z,1008.47
2018-08-23T03:34:45.025Z,1008.47
2018-08-23T03:35:45.013Z,1008.47
2018-08-23T03:36:44.998Z,1008.47
2018-08-23T03:37:44.977Z,1008.46
2018-08-23T03:38:44.964Z,1008.48
2018-08-23T03:39:44.952Z,1008.49
2018-08-23T03:40:44.931Z,1008.52
2018-08-23T03:41:44.918Z,1008.49
2018-08-23T03:42:44.904Z,1008.51
2018-08-23T03:43:44.888Z,1008.47
2018-08-23T03:44:44.873Z,1008.48
2018-08-23T03:45:44.858Z,1008.48
2018-08-23T03:46:44.842Z,1008.51
2018-08-23T03:47:44.830Z,1008.52
2018-08-23T03:48:44.812Z,1008.54
2018-08-23T03:49:44.796Z,1008.48
2018-08-23T03:50:44.782Z,1008.53
2018-08-23T03:51:44.767Z,1008.49
2018-08-23T03:52:44.753Z,1008.45
2018-08-23T03:53:44.740Z,1008.49
2018-08-23T03:54:44.730Z,1008.43
2018-08-23T03:55:44.708Z,1008.49
2018-08-23T03:56:44.697Z,1008.47
2018-08-23T03:57:44.684Z,1008.46
2018-08-23T03:58:44.663Z,1008.48
2018-08-23T03:59:44.649Z,1008.45
2018-08-23T04:00:44.632Z,1008.45
2018-08-23T04:01:44.629Z,1008.46
2018-08-23T04:02:44.605Z,1008.44
2018-08-23T04:03:44.584Z,1008.43
2018-08-23T04:04:44.572Z,1008.40
2018-08-23T04:05:44.556Z,1008.40
2018-08-23T04:06:44.542Z,1008.40
2018-08-23T04:07:44.525Z,1008.45
2018-08-23T04:08:44.511Z,1008.40
2018-08-23T04:09:44.496Z,1008.40
2018-08-23T04:10:44.480Z,1008.41
2018-08-23T04:11:44.464Z,1008.39
2018-08-23T04:12:44.447Z,1008.37
2018-08-23T04:13:44.436Z,1008.40
2018-08-23T04:14:44.425Z,1008.43
2018-08-23T04:15:44.408Z,1008.39
2018-08-23T04:16:44.397Z,1008.42
2018-08-23T04:17:44.375Z,1008.40
2018-08-23T04:18:44.361Z,1008.35
2018-08-23T04:19:44.343Z,1008.39
2018-08-23T04:20:44.329Z,1008.38
2018-08-23T04:21:44.312Z,1008.44
2018-08-23T04:22:44.305Z,1008.42
2018-08-23T04:23:44.281Z,1008.41
2018-08-23T04:24:44.268Z,1008.42
2018-08-23T04:25:44.252Z,1008.39
2018-08-23T04:26:44.245Z,1008.41
2018-08-23T04:27:44.222Z,1008.42
2018-08-23T04:28:44.205Z,1008.41
2018-08-23T04:29:44.191Z,1008.39
2018-08-23T04:30:44.176Z,1008.42
2018-08-23T04:31:44.160Z,1008.41
2018-08-23T04:32:44.156Z,1008.40
2018-08-23T04:33:44.141Z,1008.40
2018-08-23T04:34:44.114Z,1008.39
2018-08-23T04:35:44.099Z,1008.41
2018-08-23T04:36:44.084Z,1008.39
2018-08-23T04:37:44.069Z,1008.34
2018-08-23T04:38:44.056Z,1008.37
2018-08-23T04:39:44.037Z,1008.36
2018-08-23T04:40:44.024Z,1008.40
2018-08-23T04:41:44.007Z,1008.34
2018-08-23T04:42:43.994Z,1008.35
2018-08-23T04:43:43.977Z,1008.35
2018-08-23T04:44:43.962Z,1008.34
2018-08-23T04:45:43.949Z,1008.33
2018-08-23T04:46:43.936Z,1008.34
2018-08-23T04:47:43.916Z,1008.32
2018-08-23T04:48:43.910Z,1008.34
2018-08-23T04:49:43.884Z,1008.32
2018-08-23T04:50:43.872Z,1008.30
2018-08-23T04:51:43.869Z,1008.29
2018-08-23T04:52:43.844Z,1008.31
2018-08-23T04:53:43.828Z,1008.28
2018-08-23T04:54:43.808Z,1008.26
2018-08-23T04:55:43.797Z,1008.26
2018-08-23T04:56:43.787Z,1008.24
2018-08-23T04:57:43.765Z,1008.28
2018-08-23T04:58:43.747Z,1008.26
2018-08-23T04:59:43.732Z,1008.28
2018-08-23T05:00:43.718Z,1008.25
2018-08-23T05:01:43.702Z,1008.24
2018-08-23T05:02:43.687Z,1008.24
2018-08-23T05:03:43.675Z,1008.22
2018-08-23T05:04:43.657Z,1008.21
2018-08-23T05:05:43.641Z,1008.19
2018-08-23T05:06:43.625Z,1008.17
2018-08-23T05:07:43.610Z,1008.13
2018-08-23T05:08:43.606Z,1008.18
2018-08-23T05:09:43.583Z,1008.16
2018-08-23T05:10:43.565Z,1008.17
2018-08-23T05:11:43.550Z,1008.21
2018-08-23T05:12:43.534Z,1008.16
2018-08-23T05:13:43.518Z,1008.16
2018-08-23T05:14:43.504Z,1008.17
2018-08-23T05:15:43.486Z,1008.17
2018-08-23T05:16:43.472Z,1008.18
2018-08-23T05:17:43.457Z,1008.19
2018-08-23T05:18:43.442Z,1008.21
2018-08-23T05:19:43.426Z,1008.16
2018-08-23T05:20:43.409Z,1008.19
2018-08-23T05:21:43.396Z,1008.19
2018-08-23T05:22:43.380Z,1008.19
2018-08-23T05:23:43.367Z,1008.20
2018-08-23T05:24:43.349Z,1008.21
2018-08-23T05:25:43.337Z,1008.19
2018-08-23T05:26:43.324Z,1008.21
2018-08-23T05:27:43.310Z,1008.20
2018-08-23T05:28:43.287Z,1008.16
2018-08-23T05:29:43.290Z,1008.15
2018-08-23T05:30:43.259Z,1008.17
2018-08-23T05:31:43.240Z,1008.11
2018-08-23T05:32:43.226Z,1008.13
2018-08-23T05:33:43.218Z,1008.06
2018-08-23T05:34:43.196Z,1008.08
2018-08-23T05:35:43.184Z,1008.11
2018-08-23T05:36:43.163Z,1008.10
2018-08-23T05:37:43.156Z,1008.09
2018-08-23T05:38:43.133Z,1008.08
2018-08-23T05:39:43.118Z,1008.09
2018-08-23T05:40:43.102Z,1008.08
2018-08-23T05:41:43.088Z,1008.10
2018-08-23T05:42:43.073Z,1008.06
2018-08-23T05:43:43.055Z,1008.09
2018-08-23T05:44:43.043Z,1008.09
2018-08-23T05:45:43.025Z,1008.06
2018-08-23T05:46:43.012Z,1008.07
2018-08-23T05:47:43.046Z,1008.10
2018-08-23T05:48:42.980Z,1008.08
2018-08-23T05:49:42.967Z,1008.05
2018-08-23T05:50:42.949Z,1008.09
2018-08-23T05:51:42.936Z,1008.07
2018-08-23T05:52:42.920Z,1008.10
2018-08-23T05:53:42.964Z,1008.11
2018-08-23T05:54:42.889Z,1008.07
2018-08-23T05:55:42.874Z,1008.12
2018-08-23T05:56:42.856Z,1008.09
2018-08-23T05:57:42.843Z,1008.08
2018-08-23T05:58:42.829Z,1008.08
2018-08-23T05:59:42.811Z,1008.09
2018-08-23T06:00:42.801Z,1008.09
2018-08-23T06:01:42.782Z,1008.08
2018-08-23T06:02:42.784Z,1008.07
2018-08-23T06:03:42.750Z,1008.07
2018-08-23T06:04:42.734Z,1008.05
2018-08-23T06:05:42.723Z,1008.03
2018-08-23T06:06:42.706Z,1008.02
2018-08-23T06:07:42.693Z,1008.03
2018-08-23T06:08:42.674Z,1008.00
2018-08-23T06:09:42.660Z,1008.02
2018-08-23T06:10:42.647Z,1008.04
2018-08-23T06:11:42.629Z,1008.05
2018-08-23T06:12:42.612Z,1008.06
2018-08-23T06:13:42.599Z,1008.05
2018-08-23T06:14:42.588Z,1008.07
2018-08-23T06:15:42.568Z,1008.06
2018-08-23T06:16:42.553Z,1008.09
2018-08-23T06:17:42.541Z,1008.09
2018-08-23T06:18:42.524Z,1008.10
2018-08-23T06:19:42.510Z,1008.13
2018-08-23T06:20:42.490Z,1008.13
2018-08-23T06:21:42.485Z,1008.18
2018-08-23T06:22:42.461Z,1008.19
2018-08-23T06:23:42.447Z,1008.16
2018-08-23T06:24:42.429Z,1008.15
2018-08-23T06:25:42.416Z,1008.12
2018-08-23T06:26:42.401Z,1008.12
2018-08-23T06:27:42.393Z,1008.12
2018-08-23T06:28:42.370Z,1008.09
2018-08-23T06:29:42.360Z,1008.15
2018-08-23T06:30:42.342Z,1008.14
2018-08-23T06:31:42.324Z,1008.12
2018-08-23T06:32:42.335Z,1008.15
2018-08-23T06:33:42.359Z,1008.12
2018-08-23T06:34:42.283Z,1008.17
2018-08-23T06:35:42.402Z,1008.16
2018-08-23T06:36:42.248Z,1008.18
2018-08-23T06:37:42.233Z,1008.18
2018-08-23T06:38:42.293Z,1008.15
2018-08-23T06:39:42.231Z,1008.18
2018-08-23T06:40:42.194Z,1008.15
2018-08-23T06:41:42.171Z,1008.16
2018-08-23T06:42:42.156Z,1008.16
2018-08-23T06:43:42.140Z,1008.15
2018-08-23T06:44:42.129Z,1008.15
2018-08-23T06:45:42.117Z,1008.17
2018-08-23T06:46:42.098Z,1008.15
2018-08-23T06:47:42.079Z,1008.14
2018-08-23T06:48:42.087Z,1008.17
2018-08-23T06:49:42.049Z,1008.16
2018-08-23T06:50:42.036Z,1008.15
2018-08-23T06:51:42.015Z,1008.13
2018-08-23T06:52:42.007Z,1008.15
2018-08-23T06:53:41.989Z,1008.19
2018-08-23T06:54:41.973Z,1008.20
2018-08-23T06:55:41.958Z,1008.19
2018-08-23T06:56:41.946Z,1008.16
2018-08-23T06:57:41.927Z,1008.20
2018-08-23T06:58:41.961Z,1008.23
2018-08-23T06:59:41.898Z,1008.19
2018-08-23T07:00:41.877Z,1008.22
2018-08-23T07:01:41.868Z,1008.18
2018-08-23T07:02:41.848Z,1008.16
2018-08-23T07:03:41.840Z,1008.18
2018-08-23T07:04:41.818Z,1008.17
2018-08-23T07:05:41.806Z,1008.17
2018-08-23T07:06:41.838Z,1008.15
2018-08-23T07:07:41.772Z,1008.18
2018-08-23T07:08:41.755Z,1008.16
2018-08-23T07:09:41.738Z,1008.15
2018-08-23T07:10:41.743Z,1008.15
2018-08-23T07:11:41.773Z,1008.12
2018-08-23T07:12:41.694Z,1008.13
2018-08-23T07:13:41.680Z,1008.14
2018-08-23T07:14:41.668Z,1008.11
2018-08-23T07:15:41.649Z,1008.12
2018-08-23T07:16:41.636Z,1008.11
2018-08-23T07:17:41.653Z,1008.14
2018-08-23T07:18:41.604Z,1008.19
2018-08-23T07:19:41.589Z,1008.15
2018-08-23T07:20:41.572Z,1008.20
2018-08-23T07:21:41.559Z,1008.16
2018-08-23T07:22:41.543Z,1008.14
2018-08-23T07:23:41.535Z,1008.13
2018-08-23T07:24:41.515Z,1008.14
2018-08-23T07:25:41.505Z,1008.17
2018-08-23T07:26:41.484Z,1008.15
2018-08-23T07:27:41.470Z,1008.14
2018-08-23T07:28:41.456Z,1008.14
2018-08-23T07:29:41.444Z,1008.10
2018-08-23T07:30:41.424Z,1008.12
2018-08-23T07:31:41.410Z,1008.11
2018-08-23T07:32:41.396Z,1008.09
2018-08-23T07:33:41.382Z,1008.10
2018-08-23T07:34:41.367Z,1008.11
2018-08-23T07:35:41.350Z,1008.10
2018-08-23T07:36:41.335Z,1008.08
2018-08-23T07:37:41.324Z,1008.09
2018-08-23T07:38:41.307Z,1008.09
2018-08-23T07:39:41.294Z,1008.06
2018-08-23T07:40:41.285Z,1008.09
2018-08-23T07:41:41.269Z,1008.08
2018-08-23T07:42:41.248Z,1008.10
2018-08-23T07:43:41.236Z,1008.10
2018-08-23T07:44:41.219Z,1008.10
2018-08-23T07:45:41.206Z,1008.06
2018-08-23T07:46:41.195Z,1008.04
2018-08-23T07:47:41.176Z,1008.04
2018-08-23T07:48:41.258Z,1008.10
2018-08-23T07:49:41.150Z,1008.09
2018-08-23T07:50:41.135Z,1008.10
2018-08-23T07:51:41.121Z,1008.10
2018-08-23T07:52:41.124Z,1008.10
2018-08-23T07:53:41.093Z,1008.11
2018-08-23T07:54:41.077Z,1008.04
2018-08-23T07:55:41.064Z,1007.98
2018-08-23T07:56:41.050Z,1007.97
2018-08-23T07:57:41.040Z,1008.02
2018-08-23T07:58:41.021Z,1008.04
2018-08-23T07:59:41.010Z,1008.10
2018-08-23T08:00:40.990Z,1008.03
2018-08-23T08:01:40.981Z,1008.03
2018-08-23T08:02:40.967Z,1008.04
2018-08-23T08:03:40.951Z,1008.02
2018-08-23T08:04:41.051Z,1008.04
2018-08-23T08:05:40.921Z,1008.06
2018-08-23T08:06:40.907Z,1008.04
2018-08-23T08:07:40.896Z,1008.06
2018-08-23T08:08:40.880Z,1008.10
2018-08-23T08:09:40.865Z,1008.10
2018-08-23T08:10:40.856Z,1008.12
2018-08-23T08:11:40.839Z,1008.09
2018-08-23T08:12:40.836Z,1008.06
2018-08-23T08:13:40.809Z,1008.11
2018-08-23T08:14:40.813Z,1008.10
2018-08-23T08:15:40.782Z,1008.01
2018-08-23T08:16:40.767Z,1008.11
2018-08-23T08:17:40.755Z,1008.08
2018-08-23T08:18:40.752Z,1007.98
2018-08-23T08:19:40.727Z,1007.99
2018-08-23T08:20:40.713Z,1007.93
2018-08-23T08:21:40.762Z,1008.05
2018-08-23T08:22:40.685Z,1008.06
2018-08-23T08:23:40.677Z,1008.07
2018-08-23T08:24:40.697Z,1008.03
2018-08-23T08:25:40.647Z,1007.93
2018-08-23T08:26:40.641Z,1008.02
2018-08-23T08:27:40.629Z,1008.03
2018-08-23T08:28:40.604Z,1008.00
2018-08-23T08:29:40.590Z,1007.98
2018-08-23T08:30:40.582Z,1007.98
2018-08-23T08:31:40.564Z,1008.02
2018-08-23T08:32:40.558Z,1007.97
2018-08-23T08:33:40.539Z,1007.99
2018-08-23T08:34:40.523Z,1008.05
2018-08-23T08:35:40.508Z,1007.99
2018-08-23T08:36:40.495Z,1008.01
2018-08-23T08:37:40.480Z,1007.99
2018-08-23T08:38:40.470Z,1008.00
2018-08-23T08:39:40.465Z,1007.98
2018-08-23T08:40:40.442Z,1007.95
2018-08-23T08:41:40.429Z,1008.00
2018-08-23T08:42:40.417Z,1008.01
2018-08-23T08:43:40.411Z,1008.00
2018-08-23T08:44:40.387Z,1007.92
2018-08-23T08:45:40.375Z,1007.94
2018-08-23T08:46:40.372Z,1007.92
2018-08-23T08:47:40.348Z,1008.00
2018-08-23T08:48:40.336Z,1008.01
2018-08-23T08:49:40.324Z,1007.97
2018-08-23T08:50:40.308Z,1008.01
2018-08-23T08:51:40.299Z,1007.94
2018-08-23T08:52:40.284Z,1007.84
2018-08-23T08:53:40.274Z,1007.91
2018-08-23T08:54:40.256Z,1007.91
2018-08-23T08:55:40.242Z,1007.97
2018-08-23T08:56:40.239Z,1007.86
2018-08-23T08:57:40.225Z,1007.87
2018-08-23T08:58:40.211Z,1007.89
2018-08-23T08:59:40.194Z,1007.88
2018-08-23T09:00:40.178Z,1007.91
2018-08-23T09:01:40.163Z,1007.86
2018-08-23T09:02:40.153Z,1007.83
2018-08-23T09:03:40.140Z,1007.81
2018-08-23T09:04:40.125Z,1007.77
2018-08-23T09:05:40.118Z,1007.70
2018-08-23T09:06:40.104Z,1007.70
2018-08-23T09:07:40.086Z,1007.80
2018-08-23T09:08:40.080Z,1007.80
2018-08-23T09:09:40.108Z,1007.73
2018-08-23T09:10:40.048Z,1007.71
2018-08-23T09:11:40.034Z,1007.62
2018-08-23T09:12:40.020Z,1007.71
2018-08-23T09:13:40.014Z,1007.66
2018-08-23T09:14:39.994Z,1007.68
2018-08-23T09:15:39.983Z,1007.69
2018-08-23T09:16:39.982Z,1007.68
2018-08-23T09:17:39.970Z,1007.69
2018-08-23T09:18:39.991Z,1007.65
2018-08-23T09:19:39.931Z,1007.65
2018-08-23T09:20:40.025Z,1007.65
2018-08-23T09:21:39.907Z,1007.70
2018-08-23T09:22:39.894Z,1007.69
2018-08-23T09:23:39.878Z,1007.67
2018-08-23T09:24:39.866Z,1007.67
2018-08-23T09:25:39.854Z,1007.68
2018-08-23T09:26:39.842Z,1007.67
2018-08-23T09:27:39.832Z,1007.61
2018-08-23T09:28:39.817Z,1007.54
2018-08-23T09:29:39.803Z,1007.58
2018-08-23T09:30:39.796Z,1007.65
2018-08-23T09:31:39.778Z,1007.54
2018-08-23T09:32:39.773Z,1007.63
2018-08-23T09:33:39.753Z,1007.67
2018-08-23T09:34:39.746Z,1007.67
2018-08-23T09:35:39.733Z,1007.66
2018-08-23T09:36:39.717Z,1007.66
2018-08-23T09:37:39.718Z,1007.64
2018-08-23T09:38:39.692Z,1007.57
2018-08-23T09:39:39.684Z,1007.59
2018-08-23T09:40:39.664Z,1007.60
2018-08-23T09:41:39.660Z,1007.62
2018-08-23T09:42:39.640Z,1007.63
2018-08-23T09:43:39.625Z,1007.60
2018-08-23T09:44:39.624Z,1007.59
2018-08-23T09:45:39.601Z,1007.59
2018-08-23T09:46:39.595Z,1007.58
2018-08-23T09:47:39.577Z,1007.49
2018-08-23T09:48:39.567Z,1007.49
2018-08-23T09:49:39.550Z,1007.49
2018-08-23T09:50:39.548Z,1007.55
2018-08-23T09:51:39.527Z,1007.45
2018-08-23T09:52:39.515Z,1007.45
2018-08-23T09:53:39.509Z,1007.36
2018-08-23T09:54:39.493Z,1007.42
2018-08-23T09:55:39.476Z,1007.39
2018-08-23T09:56:39.636Z,1007.46
2018-08-23T09:57:39.456Z,1007.43
2018-08-23T09:58:39.440Z,1007.43
2018-08-23T09:59:39.431Z,1007.36
2018-08-23T10:00:39.417Z,1007.41
2018-08-23T10:01:39.403Z,1007.28
2018-08-23T10:02:39.392Z,1007.39
2018-08-23T10:03:39.376Z,1007.44
2018-08-23T10:04:39.449Z,1007.44
2018-08-23T10:05:39.352Z,1007.47
2018-08-23T10:06:39.344Z,1007.43
2018-08-23T10:07:39.327Z,1007.49
2018-08-23T10:08:39.319Z,1007.41
2018-08-23T10:09:39.304Z,1007.38
2018-08-23T10:10:39.294Z,1007.40
2018-08-23T10:11:39.425Z,1007.33
2018-08-23T10:12:39.265Z,1007.37
2018-08-23T10:13:39.261Z,1007.35
2018-08-23T10:14:39.245Z,1007.32
2018-08-23T10:15:39.230Z,1007.30
2018-08-23T10:16:39.227Z,1007.28
2018-08-23T10:17:39.206Z,1007.27
2018-08-23T10:18:39.195Z,1007.25
2018-08-23T10:19:39.185Z,1007.17
2018-08-23T10:20:39.171Z,1007.19
2018-08-23T10:21:39.158Z,1007.17
2018-08-23T10:22:39.146Z,1007.15
2018-08-23T10:23:39.148Z,1007.23
2018-08-23T10:24:39.125Z,1007.28
2018-08-23T10:25:39.112Z,1007.33
2018-08-23T10:26:39.142Z,1007.24
2018-08-23T10:27:39.086Z,1007.22
2018-08-23T10:28:39.077Z,1007.24
2018-08-23T10:29:39.060Z,1007.18
2018-08-23T10:30:39.054Z,1007.16
2018-08-23T10:31:39.038Z,1007.15
2018-08-23T10:32:39.027Z,1007.13
2018-08-23T10:33:39.014Z,1007.21
2018-08-23T10:34:39.506Z,1007.19
2018-08-23T10:35:38.989Z,1007.24
2018-08-23T10:36:38.975Z,1007.15
2018-08-23T10:37:38.969Z,1007.14
2018-08-23T10:38:38.955Z,1007.18
2018-08-23T10:39:38.939Z,1007.17
2018-08-23T10:40:38.927Z,1007.14
2018-08-23T10:41:38.923Z,1007.10
2018-08-23T10:42:38.901Z,1007.09
2018-08-23T10:43:38.889Z,1007.13
2018-08-23T10:44:38.890Z,1007.13
2018-08-23T10:45:38.870Z,1007.12
2018-08-23T10:46:38.853Z,1007.20
2018-08-23T10:47:38.856Z,1007.10
2018-08-23T10:48:38.828Z,1007.07
2018-08-23T10:49:38.819Z,1007.15
2018-08-23T10:50:38.835Z,1007.05
2018-08-23T10:51:38.809Z,1007.09
2018-08-23T10:52:38.786Z,1007.08
2018-08-23T10:53:38.771Z,1007.06
2018-08-23T10:54:38.761Z,1007.01
2018-08-23T10:55:38.744Z,1007.07
2018-08-23T10:56:38.736Z,1007.06
2018-08-23T10:57:38.724Z,1007.10
2018-08-23T10:58:38.715Z,1007.12
2018-08-23T10:59:38.693Z,1006.99
2018-08-23T11:00:38.694Z,1007.11
2018-08-23T11:01:38.668Z,1007.11
2018-08-23T11:02:38.657Z,1007.15
2018-08-23T11:03:38.650Z,1007.10
2018-08-23T11:04:38.638Z,1007.06
2018-08-23T11:05:38.620Z,1007.17
2018-08-23T11:06:38.609Z,1007.06
2018-08-23T11:07:38.599Z,1007.08
2018-08-23T11:08:38.586Z,1007.01
2018-08-23T11:09:38.619Z,1007.01
2018-08-23T11:10:38.565Z,1007.03
2018-08-23T11:11:38.549Z,1007.00
2018-08-23T11:12:38.537Z,1007.00
2018-08-23T11:13:38.525Z,1006.99
2018-08-23T11:14:38.513Z,1006.93
2018-08-23T11:15:38.503Z,1006.98
2018-08-23T11:16:38.534Z,1007.00
2018-08-23T11:17:38.485Z,1006.96
2018-08-23T11:18:38.475Z,1006.86
2018-08-23T11:19:38.452Z,1006.89
2018-08-23T11:20:38.449Z,1006.85
2018-08-23T11:21:38.430Z,1006.93
2018-08-23T11:22:38.427Z,1006.91
2018-08-23T11:23:38.409Z,1006.86
2018-08-23T11:24:38.404Z,1006.92
2018-08-23T11:25:38.388Z,1006.88
2018-08-23T11:26:38.371Z,1006.91
2018-08-23T11:27:38.359Z,1006.89
2018-08-23T11:28:38.342Z,1006.92
2018-08-23T11:29:38.441Z,1006.84
2018-08-23T11:30:38.318Z,1006.92
2018-08-23T11:31:38.310Z,1006.94
2018-08-23T11:32:38.296Z,1006.87
2018-08-23T11:33:38.283Z,1006.89
2018-08-23T11:34:38.276Z,1006.92
2018-08-23T11:35:38.261Z,1006.79
2018-08-23T11:36:38.251Z,1006.79
2018-08-23T11:37:38.237Z,1006.77
2018-08-23T11:38:38.224Z,1006.79
2018-08-23T11:39:38.211Z,1006.88
2018-08-23T11:40:38.202Z,1006.83
2018-08-23T11:41:38.187Z,1006.86
2018-08-23T11:42:38.232Z,1006.81
2018-08-23T11:43:38.163Z,1006.76
2018-08-23T11:44:38.151Z,1006.73
2018-08-23T11:45:38.140Z,1006.81
2018-08-23T11:46:38.142Z,1006.73
2018-08-23T11:47:38.114Z,1006.77
2018-08-23T11:48:38.105Z,1006.76
2018-08-23T11:49:38.091Z,1006.82
2018-08-23T11:50:38.082Z,1006.76
2018-08-23T11:51:38.066Z,1006.74
2018-08-23T11:52:38.055Z,1006.76
2018-08-23T11:53:38.224Z,1006.74
2018-08-23T11:54:38.041Z,1006.71
2018-08-23T11:55:38.018Z,1006.67
2018-08-23T11:56:38.005Z,1006.68
2018-08-23T11:57:37.997Z,1006.65
2018-08-23T11:58:37.996Z,1006.63
2018-08-23T11:59:37.969Z,1006.61
2018-08-23T12:00:37.965Z,1006.69
2018-08-23T12:01:37.946Z,1006.72
2018-08-23T12:02:37.936Z,1006.72
2018-08-23T12:03:37.921Z,1006.69
2018-08-23T12:04:37.912Z,1006.59
2018-08-23T12:05:37.901Z,1006.63